Time;durP1;ratioP1;P1;durP2;ratioP2;P2;SDS_P1;SDS_P2;PMS_P1;PMS_P2;Temp;Humidity;BMP_temperature;BMP_pressure;BME280_temperature;BME280_humidity;BME280_pressure;Samples;Min_cycle;Max_cycle;Signal;HPM_P1;HPM_P2
2023/08/24 00:00:11;;;;;;;4.80;4.20;;;;;;;;;;5047866;28;20430;-63
2023/08/24 00:02:37;;;;;;;6.17;3.97;;;;;;;;;;5047592;28;20461;-63
2023/08/24 00:05:03;;;;;;;4.73;3.70;;;;;;;;;;5046776;28;20470;-62
2023/08/24 00:07:30;;;;;;;9.13;3.70;;;;;;;;;;5045020;28;20452;-61
2023/08/24 00:09:56;;;;;;;6.93;3.50;;;;;;;;;;5047561;28;20446;-61
2023/08/24 00:12:22;;;;;;;3.47;3.20;;;;;;;;;;5045212;28;21892;-60
2023/08/24 00:14:48;;;;;;;8.80;3.70;;;;;;;;;;5041480;28;20441;-61
2023/08/24 00:17:14;;;;;;;3.53;3.33;;;;;;;;;;5045292;28;20486;-61
2023/08/24 00:19:40;;;;;;;3.53;3.33;;;;;;;;;;5047538;28;20969;-61
2023/08/24 00:22:06;;;;;;;4.33;3.93;;;;;;;;;;5051468;28;20488;-62
2023/08/24 00:24:32;;;;;;;3.83;3.50;;;;;;;;;;5048746;28;20195;-60
2023/08/24 00:26:58;;;;;;;4.33;4.00;;;;;;;;;;5050357;28;21004;-60
2023/08/24 00:29:24;;;;;;;3.63;3.30;;;;;;;;;;5048950;28;20520;-60
2023/08/24 00:31:50;;;;;;;3.03;2.93;;;;;;;;;;5051871;28;20454;-60
2023/08/24 00:34:16;;;;;;;3.83;3.63;;;;;;;;;;5044193;28;20580;-60
2023/08/24 00:36:42;;;;;;;4.83;3.40;;;;;;;;;;5049336;28;20492;-60
2023/08/24 00:39:08;;;;;;;5.70;3.50;;;;;;;;;;5049788;28;20929;-60
2023/08/24 00:41:34;;;;;;;6.43;3.57;;;;;;;;;;5049516;28;20931;-61
2023/08/24 00:44:00;;;;;;;4.77;3.30;;;;;;;;;;5051336;28;20430;-60
2023/08/24 00:46:27;;;;;;;4.23;3.93;;;;;;;;;;5050628;28;20444;-60
2023/08/24 00:48:56;;;;;;;3.77;3.67;;;;;;;;;;5049604;28;20211;-60
2023/08/24 00:51:22;;;;;;;8.60;4.60;;;;;;;;;;5045588;28;20447;-61
2023/08/24 00:53:49;;;;;;;7.23;4.00;;;;;;;;;;5048445;28;20883;-60
2023/08/24 00:56:15;;;;;;;3.20;3.10;;;;;;;;;;5051142;28;20488;-61
2023/08/24 00:58:41;;;;;;;3.83;3.70;;;;;;;;;;5049445;28;20467;-60
2023/08/24 01:01:07;;;;;;;3.73;3.33;;;;;;;;;;5048257;28;20483;-60
2023/08/24 01:03:33;;;;;;;3.20;3.10;;;;;;;;;;5050904;28;20438;-61
2023/08/24 01:05:59;;;;;;;4.40;4.23;;;;;;;;;;5047653;28;20427;-60
2023/08/24 01:08:25;;;;;;;5.50;3.10;;;;;;;;;;5049804;28;20442;-60
2023/08/24 01:11:26;;;;;;;11.73;3.70;;;;;;;;;;5047601;28;20488;-60
2023/08/24 01:14:02;;;;;;;3.70;3.50;;;;;;;;;;5026252;28;20556;-60
2023/08/24 01:16:29;;;;;;;3.30;3.10;;;;;;;;;;5044629;28;20475;-61
2023/08/24 01:18:59;;;;;;;3.53;3.37;;;;;;;;;;5051726;28;20441;-61
2023/08/24 01:21:26;;;;;;;5.90;3.27;;;;;;;;;;5047282;28;20450;-61
2023/08/24 01:24:00;;;;;;;5.60;3.97;;;;;;;;;;5050008;28;20434;-60
2023/08/24 01:26:27;;;;;;;3.90;3.70;;;;;;;;;;5051005;28;20486;-61
2023/08/24 01:28:54;;;;;;;5.77;4.20;;;;;;;;;;5049542;28;20438;-60
2023/08/24 01:31:20;;;;;;;4.20;4.00;;;;;;;;;;5050969;28;20434;-60
2023/08/24 01:33:46;;;;;;;4.00;3.77;;;;;;;;;;5046088;28;20438;-60
2023/08/24 01:36:14;;;;;;;4.20;4.00;;;;;;;;;;5046940;28;21014;-60
2023/08/24 01:38:40;;;;;;;3.80;3.70;;;;;;;;;;5050296;28;20479;-60
2023/08/24 01:41:12;;;;;;;4.30;4.13;;;;;;;;;;5051278;28;20453;-60
2023/08/24 01:43:39;;;;;;;3.90;3.80;;;;;;;;;;5047446;28;20438;-60
2023/08/24 01:46:07;;;;;;;3.50;3.40;;;;;;;;;;5047114;28;20491;-61
2023/08/24 01:48:33;;;;;;;3.17;3.07;;;;;;;;;;5047939;28;20469;-62
2023/08/24 01:51:00;;;;;;;4.30;4.10;;;;;;;;;;5048323;28;20509;-60
2023/08/24 01:53:26;;;;;;;3.93;3.70;;;;;;;;;;5045361;28;20517;-61
2023/08/24 01:55:53;;;;;;;3.27;2.97;;;;;;;;;;5050543;28;20458;-60
2023/08/24 01:58:19;;;;;;;3.67;3.47;;;;;;;;;;5050513;28;20453;-61
2023/08/24 02:00:45;;;;;;;4.17;4.00;;;;;;;;;;5047688;28;20474;-61
2023/08/24 02:03:11;;;;;;;5.03;4.63;;;;;;;;;;5046967;28;20454;-60
2023/08/24 02:05:37;;;;;;;3.70;3.50;;;;;;;;;;5050601;28;20833;-61
2023/08/24 02:08:03;;;;;;;4.40;4.10;;;;;;;;;;5049022;28;20573;-60
2023/08/24 02:10:29;;;;;;;5.63;5.33;;;;;;;;;;5050735;28;20474;-60
2023/08/24 02:12:55;;;;;;;3.53;3.43;;;;;;;;;;5047161;28;20458;-60
2023/08/24 02:15:21;;;;;;;3.37;3.37;;;;;;;;;;5046696;28;20845;-61
2023/08/24 02:17:47;;;;;;;4.20;4.00;;;;;;;;;;5047315;28;21214;-60
2023/08/24 02:20:13;;;;;;;3.90;3.80;;;;;;;;;;5046841;28;20432;-61
2023/08/24 02:22:39;;;;;;;4.77;3.90;;;;;;;;;;5044688;28;20500;-61
2023/08/24 02:25:06;;;;;;;4.67;3.63;;;;;;;;;;5048537;28;20430;-61
2023/08/24 02:27:32;;;;;;;4.80;4.40;;;;;;;;;;5050264;28;20418;-61
2023/08/24 02:29:58;;;;;;;3.60;3.40;;;;;;;;;;5049866;28;20937;-60
2023/08/24 02:32:24;;;;;;;4.00;3.90;;;;;;;;;;5047900;28;20446;-60
2023/08/24 02:34:50;;;;;;;4.13;3.73;;;;;;;;;;5045905;28;20525;-60
2023/08/24 02:37:16;;;;;;;4.10;3.80;;;;;;;;;;5048576;28;20219;-61
2023/08/24 02:39:42;;;;;;;3.30;3.20;;;;;;;;;;5049729;28;20445;-61
2023/08/24 02:42:08;;;;;;;3.00;2.93;;;;;;;;;;5045380;28;20442;-61
2023/08/24 02:44:34;;;;;;;3.70;3.50;;;;;;;;;;5048297;28;20434;-61
2023/08/24 02:47:00;;;;;;;3.10;2.90;;;;;;;;;;5048473;28;20442;-61
2023/08/24 02:49:26;;;;;;;2.77;2.77;;;;;;;;;;5046505;28;20422;-60
2023/08/24 02:51:52;;;;;;;4.50;2.70;;;;;;;;;;5047337;28;20462;-61
2023/08/24 02:54:18;;;;;;;3.27;3.17;;;;;;;;;;5049268;28;20294;-61
2023/08/24 02:56:44;;;;;;;13.30;3.57;;;;;;;;;;5047261;28;20224;-61
2023/08/24 02:59:10;;;;;;;3.57;3.23;;;;;;;;;;5045919;28;20525;-61
2023/08/24 03:01:38;;;;;;;3.43;3.03;;;;;;;;;;5039379;28;20469;-60
2023/08/24 03:04:05;;;;;;;3.00;2.90;;;;;;;;;;5045886;28;20525;-60
2023/08/24 03:06:31;;;;;;;3.30;3.10;;;;;;;;;;5049785;28;20430;-60
2023/08/24 03:08:57;;;;;;;3.33;3.23;;;;;;;;;;5049956;28;20430;-60
2023/08/24 03:11:23;;;;;;;5.47;3.47;;;;;;;;;;5049889;28;20427;-61
2023/08/24 03:13:49;;;;;;;3.80;3.70;;;;;;;;;;5045005;28;20442;-61
2023/08/24 03:16:15;;;;;;;3.23;3.03;;;;;;;;;;5046555;28;20471;-61
2023/08/24 03:18:41;;;;;;;4.13;2.70;;;;;;;;;;5048486;28;20938;-60
2023/08/24 03:21:07;;;;;;;3.33;3.13;;;;;;;;;;5047068;28;20808;-61
2023/08/24 03:23:33;;;;;;;4.37;3.43;;;;;;;;;;5045462;28;20482;-61
2023/08/24 03:25:59;;;;;;;3.53;3.23;;;;;;;;;;5046464;28;20852;-60
2023/08/24 03:28:25;;;;;;;4.67;3.57;;;;;;;;;;5048623;28;20516;-60
2023/08/24 03:30:54;;;;;;;3.47;3.23;;;;;;;;;;5048724;28;20755;-62
2023/08/24 03:33:20;;;;;;;3.70;3.43;;;;;;;;;;5046029;28;20233;-60
2023/08/24 03:35:46;;;;;;;3.67;3.57;;;;;;;;;;5047822;28;20445;-62
2023/08/24 03:38:12;;;;;;;5.90;3.40;;;;;;;;;;5049324;28;20458;-61
2023/08/24 03:40:38;;;;;;;4.47;4.17;;;;;;;;;;5046300;28;20434;-61
2023/08/24 03:43:04;;;;;;;4.43;4.23;;;;;;;;;;5045482;28;20480;-61
2023/08/24 03:45:30;;;;;;;5.07;4.53;;;;;;;;;;5042375;28;20434;-61
2023/08/24 03:47:56;;;;;;;4.10;3.80;;;;;;;;;;5045936;28;20535;-61
2023/08/24 03:50:22;;;;;;;2.10;2.10;;;;;;;;;;5043928;28;20455;-60
2023/08/24 03:52:49;;;;;;;4.90;3.63;;;;;;;;;;5048890;28;20550;-60
2023/08/24 03:55:14;;;;;;;5.73;3.60;;;;;;;;;;5047296;28;20442;-61
2023/08/24 03:57:40;;;;;;;5.27;5.00;;;;;;;;;;5047475;28;20498;-62
2023/08/24 04:00:10;;;;;;;4.10;4.00;;;;;;;;;;5049992;28;20454;-60
2023/08/24 04:02:36;;;;;;;4.13;3.93;;;;;;;;;;5044925;28;21006;-60
2023/08/24 04:05:02;;;;;;;3.90;3.60;;;;;;;;;;5047791;28;20461;-61
2023/08/24 04:07:28;;;;;;;3.40;3.10;;;;;;;;;;5051062;28;20468;-60
2023/08/24 04:09:54;;;;;;;4.67;4.30;;;;;;;;;;5049721;28;20906;-61
2023/08/24 04:12:20;;;;;;;4.47;4.27;;;;;;;;;;5049840;28;20477;-60
2023/08/24 04:14:47;;;;;;;7.70;3.80;;;;;;;;;;5046663;28;20192;-60
2023/08/24 04:17:13;;;;;;;3.73;3.63;;;;;;;;;;5051822;28;20612;-61
2023/08/24 04:19:39;;;;;;;3.70;3.63;;;;;;;;;;5052843;28;20426;-61
2023/08/24 04:22:05;;;;;;;4.27;4.00;;;;;;;;;;5045813;28;20442;-60
2023/08/24 04:24:31;;;;;;;4.27;3.90;;;;;;;;;;5050873;28;20493;-61
2023/08/24 04:26:57;;;;;;;5.60;5.00;;;;;;;;;;5049029;28;20609;-60
2023/08/24 04:29:23;;;;;;;4.07;3.87;;;;;;;;;;5050337;28;20176;-60
2023/08/24 04:31:49;;;;;;;6.03;3.83;;;;;;;;;;5045015;28;20934;-61
2023/08/24 04:34:15;;;;;;;4.27;3.97;;;;;;;;;;5046606;28;20434;-61
2023/08/24 04:36:41;;;;;;;4.00;3.80;;;;;;;;;;5051333;28;20269;-61
2023/08/24 04:39:07;;;;;;;3.87;3.30;;;;;;;;;;5048815;28;20538;-60
2023/08/24 04:41:33;;;;;;;4.00;3.90;;;;;;;;;;5046448;28;20548;-61
2023/08/24 04:43:59;;;;;;;4.23;3.97;;;;;;;;;;5048461;28;20191;-61
2023/08/24 04:46:26;;;;;;;8.53;4.00;;;;;;;;;;5050315;28;20444;-61
2023/08/24 04:48:52;;;;;;;9.30;4.97;;;;;;;;;;5045951;28;20460;-61
2023/08/24 04:51:18;;;;;;;5.07;4.20;;;;;;;;;;5049293;28;20922;-61
2023/08/24 04:53:44;;;;;;;4.30;4.20;;;;;;;;;;5050103;28;20481;-61
2023/08/24 04:56:10;;;;;;;3.47;3.33;;;;;;;;;;5050779;28;20488;-61
2023/08/24 04:58:36;;;;;;;5.10;3.77;;;;;;;;;;5051334;28;20215;-61
2023/08/24 05:01:02;;;;;;;4.70;4.30;;;;;;;;;;5043577;28;20493;-61
2023/08/24 05:03:28;;;;;;;3.63;3.53;;;;;;;;;;5047241;28;20465;-61
2023/08/24 05:05:53;;;;;;;3.90;3.80;;;;;;;;;;5047714;28;20469;-61
2023/08/24 05:08:19;;;;;;;5.37;4.87;;;;;;;;;;5051833;28;20488;-61
2023/08/24 05:10:46;;;;;;;4.10;3.73;;;;;;;;;;5048544;28;20918;-61
2023/08/24 05:13:12;;;;;;;4.10;3.90;;;;;;;;;;5048557;28;20446;-61
2023/08/24 05:15:38;;;;;;;5.63;4.70;;;;;;;;;;5046168;28;20461;-61
2023/08/24 05:18:04;;;;;;;5.30;4.23;;;;;;;;;;5051316;28;20449;-62
2023/08/24 05:20:30;;;;;;;5.03;4.03;;;;;;;;;;5050300;28;20271;-61
2023/08/24 05:22:56;;;;;;;8.93;4.93;;;;;;;;;;5051399;28;20474;-61
2023/08/24 05:25:23;;;;;;;4.80;4.60;;;;;;;;;;5046459;28;20444;-61
2023/08/24 05:27:49;;;;;;;4.47;4.27;;;;;;;;;;5047719;28;20520;-61
2023/08/24 05:30:15;;;;;;;5.73;4.17;;;;;;;;;;5048075;28;20442;-61
2023/08/24 05:32:41;;;;;;;4.10;4.00;;;;;;;;;;5050506;28;20434;-61
2023/08/24 05:35:07;;;;;;;4.00;3.90;;;;;;;;;;5044178;28;20446;-61
2023/08/24 05:37:33;;;;;;;7.17;4.20;;;;;;;;;;5048419;28;20486;-61
2023/08/24 05:40:02;;;;;;;5.10;4.70;;;;;;;;;;5050882;28;20517;-61
2023/08/24 05:42:29;;;;;;;6.03;4.07;;;;;;;;;;5049205;28;20469;-61
2023/08/24 05:44:55;;;;;;;4.87;4.47;;;;;;;;;;5045536;28;20434;-61
2023/08/24 05:47:21;;;;;;;4.10;3.80;;;;;;;;;;5042387;28;21024;-61
2023/08/24 05:49:47;;;;;;;4.07;3.97;;;;;;;;;;5046771;28;20437;-61
2023/08/24 05:52:13;;;;;;;4.40;3.70;;;;;;;;;;5049149;28;20191;-61
2023/08/24 05:54:39;;;;;;;5.23;4.13;;;;;;;;;;5047844;28;20204;-62
2023/08/24 05:57:05;;;;;;;5.50;4.97;;;;;;;;;;5047851;28;20556;-61
2023/08/24 05:59:32;;;;;;;4.27;3.97;;;;;;;;;;5047685;28;20512;-61
2023/08/24 06:01:58;;;;;;;4.23;3.93;;;;;;;;;;5048622;28;20521;-62
2023/08/24 06:04:23;;;;;;;4.60;4.03;;;;;;;;;;5049377;28;20580;-61
2023/08/24 06:06:49;;;;;;;10.00;6.93;;;;;;;;;;5048797;28;20453;-63
2023/08/24 06:09:15;;;;;;;5.57;4.07;;;;;;;;;;5047656;28;20848;-63
2023/08/24 06:11:41;;;;;;;5.30;4.80;;;;;;;;;;5050658;28;20438;-61
2023/08/24 06:14:07;;;;;;;6.80;6.30;;;;;;;;;;5042065;28;21020;-60
2023/08/24 06:16:33;;;;;;;4.90;4.50;;;;;;;;;;5048095;28;20486;-62
2023/08/24 06:18:59;;;;;;;4.90;4.53;;;;;;;;;;5048134;28;20442;-61
2023/08/24 06:21:25;;;;;;;6.50;4.80;;;;;;;;;;5047970;28;20426;-62
2023/08/24 06:23:51;;;;;;;17.40;5.43;;;;;;;;;;5047760;28;20525;-61
2023/08/24 06:26:18;;;;;;;4.80;4.50;;;;;;;;;;5046770;28;20794;-62
2023/08/24 06:28:44;;;;;;;7.87;5.10;;;;;;;;;;5047182;28;20431;-60
2023/08/24 06:31:10;;;;;;;12.37;3.70;;;;;;;;;;5049920;28;20458;-63
2023/08/24 06:33:36;;;;;;;4.70;4.30;;;;;;;;;;5045569;28;20458;-61
2023/08/24 06:36:05;;;;;;;5.90;4.60;;;;;;;;;;5042691;28;20500;-61
2023/08/24 06:38:31;;;;;;;7.93;4.67;;;;;;;;;;5049721;28;20449;-60
2023/08/24 06:40:58;;;;;;;4.97;4.53;;;;;;;;;;5043278;28;20509;-60
2023/08/24 06:43:24;;;;;;;10.73;4.60;;;;;;;;;;5046034;28;20471;-60
2023/08/24 06:45:50;;;;;;;5.50;4.40;;;;;;;;;;5038405;28;20488;-61
2023/08/24 06:48:17;;;;;;;21.87;5.90;;;;;;;;;;5045820;28;20438;-61
2023/08/24 06:50:43;;;;;;;5.23;4.67;;;;;;;;;;5047208;28;20506;-61
2023/08/24 06:53:09;;;;;;;4.80;4.60;;;;;;;;;;5042949;28;21001;-61
2023/08/24 06:55:36;;;;;;;9.70;4.93;;;;;;;;;;5043476;28;20446;-61
2023/08/24 06:58:05;;;;;;;4.93;4.50;;;;;;;;;;5046763;28;20213;-63
2023/08/24 07:00:31;;;;;;;11.37;5.10;;;;;;;;;;5050043;28;20434;-62
2023/08/24 07:02:57;;;;;;;4.40;4.30;;;;;;;;;;5046543;28;20852;-61
2023/08/24 07:05:23;;;;;;;4.90;4.60;;;;;;;;;;5043928;28;20438;-69
2023/08/24 07:07:53;;;;;;;8.00;4.90;;;;;;;;;;5048864;28;20833;-71
2023/08/24 07:10:20;;;;;;;4.83;4.50;;;;;;;;;;5044164;28;20449;-69
2023/08/24 07:12:46;;;;;;;5.10;4.80;;;;;;;;;;5047386;28;20466;-69
2023/08/24 07:15:12;;;;;;;4.40;4.13;;;;;;;;;;5045091;28;20514;-69
2023/08/24 07:17:38;;;;;;;4.77;4.60;;;;;;;;;;5041107;28;20494;-70
2023/08/24 07:20:05;;;;;;;7.37;4.73;;;;;;;;;;5046095;28;20446;-69
2023/08/24 07:22:32;;;;;;;14.10;5.30;;;;;;;;;;5045640;28;20470;-69
2023/08/24 07:24:58;;;;;;;4.93;3.93;;;;;;;;;;5039436;28;20445;-71
2023/08/24 07:27:24;;;;;;;8.43;5.47;;;;;;;;;;5043954;28;20430;-70
2023/08/24 07:29:50;;;;;;;6.10;5.60;;;;;;;;;;5045009;28;20430;-70
2023/08/24 07:32:16;;;;;;;5.23;4.67;;;;;;;;;;5047852;28;20433;-70
2023/08/24 07:34:42;;;;;;;5.35;4.45;;;;;;;;;;5046514;28;20459;-70
2023/08/24 07:37:08;;;;;;;5.13;4.73;;;;;;;;;;5047649;28;20258;-71
2023/08/24 07:39:34;;;;;;;6.43;4.90;;;;;;;;;;5047766;28;20175;-70
2023/08/24 07:42:00;;;;;;;5.60;4.67;;;;;;;;;;5046327;28;20437;-71
2023/08/24 07:44:26;;;;;;;5.60;5.07;;;;;;;;;;5046728;28;20410;-69
2023/08/24 07:46:52;;;;;;;4.73;4.53;;;;;;;;;;5047018;28;20426;-69
2023/08/24 07:49:18;;;;;;;7.50;5.37;;;;;;;;;;5047950;28;20442;-71
2023/08/24 07:51:44;;;;;;;4.57;4.37;;;;;;;;;;5048589;28;20422;-69
2023/08/24 07:54:10;;;;;;;5.43;5.13;;;;;;;;;;5046109;28;20477;-70
2023/08/24 07:56:36;;;;;;;4.40;4.20;;;;;;;;;;5045491;28;20481;-70
2023/08/24 07:59:02;;;;;;;7.68;4.85;;;;;;;;;;5046150;28;20415;-68
2023/08/24 08:01:28;;;;;;;4.60;4.20;;;;;;;;;;5048679;28;20192;-69
2023/08/24 08:03:54;;;;;;;4.67;4.37;;;;;;;;;;5046110;28;20439;-69
2023/08/24 08:06:21;;;;;;;4.57;4.37;;;;;;;;;;5045855;28;20442;-70
2023/08/24 08:08:50;;;;;;;4.90;4.50;;;;;;;;;;5049289;28;20414;-70
2023/08/24 08:11:16;;;;;;;4.50;3.93;;;;;;;;;;5047407;28;20426;-68
2023/08/24 08:13:42;;;;;;;7.90;5.37;;;;;;;;;;5048971;28;20437;-79
2023/08/24 08:16:08;;;;;;;5.13;4.80;;;;;;;;;;5045699;28;20473;-75
2023/08/24 08:18:35;;;;;;;4.03;3.87;;;;;;;;;;5040298;28;20450;-75
2023/08/24 08:21:02;;;;;;;5.83;5.00;;;;;;;;;;5045522;28;20436;-72
2023/08/24 08:23:28;;;;;;;7.60;4.33;;;;;;;;;;5044329;28;20461;-74
2023/08/24 08:25:54;;;;;;;5.30;4.87;;;;;;;;;;5044408;28;20426;-73
2023/08/24 08:28:20;;;;;;;5.17;4.73;;;;;;;;;;5046747;28;20446;-74
2023/08/24 08:30:46;;;;;;;7.23;4.60;;;;;;;;;;5047088;28;20502;-73
2023/08/24 08:33:12;;;;;;;5.90;5.40;;;;;;;;;;5047371;28;21065;-73
2023/08/24 08:35:39;;;;;;;4.53;4.33;;;;;;;;;;5048305;28;20495;-74
2023/08/24 08:38:07;;;;;;;5.87;5.10;;;;;;;;;;5048059;28;20603;-72
2023/08/24 08:40:36;;;;;;;4.57;4.30;;;;;;;;;;5047761;28;20470;-72
2023/08/24 08:43:02;;;;;;;5.23;4.73;;;;;;;;;;5050844;28;20846;-73
2023/08/24 08:45:29;;;;;;;5.50;4.80;;;;;;;;;;5049692;28;21002;-74
2023/08/24 08:47:59;;;;;;;6.00;4.70;;;;;;;;;;5049698;28;20434;-73
2023/08/24 08:50:25;;;;;;;7.80;4.80;;;;;;;;;;5052065;28;20777;-72
2023/08/24 08:52:51;;;;;;;9.70;3.93;;;;;;;;;;5052352;28;20461;-73
2023/08/24 08:55:17;;;;;;;6.90;3.80;;;;;;;;;;5049793;28;20433;-72
2023/08/24 08:57:44;;;;;;;3.60;3.50;;;;;;;;;;5048059;28;20481;-73
2023/08/24 09:00:13;;;;;;;3.97;3.60;;;;;;;;;;5051806;28;20421;-72
2023/08/24 09:02:40;;;;;;;3.60;3.33;;;;;;;;;;5051749;28;20534;-75
2023/08/24 09:05:06;;;;;;;3.50;3.20;;;;;;;;;;5048106;28;20520;-71
2023/08/24 09:07:33;;;;;;;14.27;4.13;;;;;;;;;;5051271;28;20462;-68
2023/08/24 09:09:59;;;;;;;4.00;3.90;;;;;;;;;;5052223;28;21020;-68
2023/08/24 09:12:25;;;;;;;4.97;4.47;;;;;;;;;;5048759;28;20914;-69
2023/08/24 09:14:51;;;;;;;4.20;4.00;;;;;;;;;;5047640;28;20979;-69
2023/08/24 09:17:21;;;;;;;3.40;3.20;;;;;;;;;;5051634;28;20477;-69
2023/08/24 09:19:50;;;;;;;4.50;3.73;;;;;;;;;;5048002;28;20446;-69
2023/08/24 09:22:15;;;;;;;5.70;4.17;;;;;;;;;;5049105;28;20973;-69
2023/08/24 09:24:41;;;;;;;6.93;4.23;;;;;;;;;;5048875;28;20426;-69
2023/08/24 09:27:18;;;;;;;4.70;4.47;;;;;;;;;;5049725;28;20547;-69
2023/08/24 09:29:44;;;;;;;7.27;4.10;;;;;;;;;;5050395;28;21168;-69
2023/08/24 09:32:10;;;;;;;4.10;3.80;;;;;;;;;;5049835;28;20962;-69
2023/08/24 09:34:37;;;;;;;4.13;3.93;;;;;;;;;;5050560;28;20434;-69
2023/08/24 09:37:06;;;;;;;4.87;4.30;;;;;;;;;;5051319;28;20970;-69
2023/08/24 09:39:32;;;;;;;3.50;3.40;;;;;;;;;;5048579;28;20432;-69
2023/08/24 09:42:04;;;;;;;6.53;3.70;;;;;;;;;;5048663;28;20450;-69
2023/08/24 09:44:30;;;;;;;4.70;4.40;;;;;;;;;;5050317;28;20427;-69
2023/08/24 09:46:56;;;;;;;5.20;4.80;;;;;;;;;;5051646;28;20937;-69
2023/08/24 09:49:22;;;;;;;5.97;4.00;;;;;;;;;;5047898;28;20430;-69
2023/08/24 09:51:48;;;;;;;4.73;4.23;;;;;;;;;;5046188;28;20675;-69
2023/08/24 09:54:16;;;;;;;7.03;3.60;;;;;;;;;;5050967;28;20470;-70
2023/08/24 09:56:43;;;;;;;6.40;4.60;;;;;;;;;;5051375;28;20557;-69
2023/08/24 09:59:13;;;;;;;5.57;4.43;;;;;;;;;;5048620;28;20482;-69
2023/08/24 10:01:43;;;;;;;4.40;4.03;;;;;;;;;;5049146;28;20445;-69
2023/08/24 10:04:11;;;;;;;5.03;4.60;;;;;;;;;;5047712;28;20529;-70
2023/08/24 10:06:39;;;;;;;3.97;3.77;;;;;;;;;;5046409;28;20430;-70
2023/08/24 10:09:07;;;;;;;7.37;4.70;;;;;;;;;;5048228;28;20511;-70
2023/08/24 10:11:36;;;;;;;4.53;4.33;;;;;;;;;;5046124;28;20452;-68
2023/08/24 10:14:14;;;;;;;4.63;4.43;;;;;;;;;;5048461;28;20509;-69
2023/08/24 10:16:40;;;;;;;4.43;4.03;;;;;;;;;;5047796;28;20490;-69
2023/08/24 10:19:06;;;;;;;4.93;4.63;;;;;;;;;;5046258;28;20430;-72
2023/08/24 10:21:32;;;;;;;4.77;4.47;;;;;;;;;;5046640;28;20422;-69
2023/08/24 10:23:58;;;;;;;6.53;4.53;;;;;;;;;;5049193;28;20438;-69
2023/08/24 10:26:24;;;;;;;3.13;3.03;;;;;;;;;;5047837;28;20515;-69
2023/08/24 10:28:51;;;;;;;7.80;4.63;;;;;;;;;;5043298;28;20430;-69
2023/08/24 10:31:17;;;;;;;4.00;3.70;;;;;;;;;;5040696;28;20435;-69
2023/08/24 10:33:45;;;;;;;4.77;3.43;;;;;;;;;;5045506;28;20509;-68
2023/08/24 10:36:13;;;;;;;4.37;3.97;;;;;;;;;;5044919;28;20935;-69
2023/08/24 10:38:42;;;;;;;3.83;3.53;;;;;;;;;;5044170;28;20450;-69
2023/08/24 10:41:09;;;;;;;20.23;4.33;;;;;;;;;;5044172;28;20497;-70
2023/08/24 10:43:38;;;;;;;5.00;4.10;;;;;;;;;;5043933;28;20446;-69
2023/08/24 10:46:05;;;;;;;4.40;3.70;;;;;;;;;;5044355;28;20442;-69
2023/08/24 10:48:31;;;;;;;4.27;3.60;;;;;;;;;;5044273;28;20473;-70
2023/08/24 10:51:19;;;;;;;5.60;4.00;;;;;;;;;;5044486;28;20938;-69
2023/08/24 10:53:45;;;;;;;3.83;3.53;;;;;;;;;;5036765;28;20902;-69
2023/08/24 10:56:12;;;;;;;3.30;3.20;;;;;;;;;;5045629;28;20712;-70
2023/08/24 10:58:38;;;;;;;3.50;3.50;;;;;;;;;;5042460;28;20961;-70
2023/08/24 11:01:04;;;;;;;4.93;3.57;;;;;;;;;;5039538;28;20427;-70
2023/08/24 11:03:33;;;;;;;4.17;3.97;;;;;;;;;;5041415;28;20466;-69
2023/08/24 11:05:59;;;;;;;3.90;3.60;;;;;;;;;;5041248;28;20439;-69
2023/08/24 11:08:44;;;;;;;4.53;3.77;;;;;;;;;;5044427;28;20438;-69
2023/08/24 11:11:20;;;;;;;4.30;4.00;;;;;;;;;;5042173;28;20435;-69
2023/08/24 11:14:05;;;;;;;6.03;3.40;;;;;;;;;;5049413;28;20414;-69
2023/08/24 11:16:41;;;;;;;5.70;3.77;;;;;;;;;;5041389;28;20501;-69
2023/08/24 11:19:07;;;;;;;6.17;3.50;;;;;;;;;;5045652;28;20437;-71
2023/08/24 11:21:36;;;;;;;3.63;3.17;;;;;;;;;;5040485;28;20439;-69
2023/08/24 11:24:02;;;;;;;3.27;3.17;;;;;;;;;;5045936;28;20430;-68
2023/08/24 11:26:30;;;;;;;4.20;3.50;;;;;;;;;;5046638;28;20514;-69
2023/08/24 11:28:57;;;;;;;4.10;3.40;;;;;;;;;;5043718;28;20866;-72
2023/08/24 11:31:24;;;;;;;3.73;3.57;;;;;;;;;;5043534;28;20446;-69
2023/08/24 11:33:55;;;;;;;3.63;3.53;;;;;;;;;;5047159;28;20418;-69
2023/08/24 11:36:23;;;;;;;4.50;4.10;;;;;;;;;;5047583;28;20473;-70
2023/08/24 11:38:49;;;;;;;5.03;3.80;;;;;;;;;;5046786;28;20438;-69
2023/08/24 11:41:15;;;;;;;3.50;3.10;;;;;;;;;;5047185;28;20935;-68
2023/08/24 11:43:45;;;;;;;13.00;4.60;;;;;;;;;;5047387;28;20437;-70
2023/08/24 11:46:11;;;;;;;13.13;4.10;;;;;;;;;;5038465;28;20481;-71
2023/08/24 11:48:39;;;;;;;4.70;4.30;;;;;;;;;;5044137;28;20782;-70
2023/08/24 11:51:08;;;;;;;4.57;4.17;;;;;;;;;;5044782;28;21429;-69
2023/08/24 11:53:37;;;;;;;3.67;3.57;;;;;;;;;;5048060;28;20857;-70
2023/08/24 11:56:05;;;;;;;12.47;4.30;;;;;;;;;;5045989;28;20488;-69
2023/08/24 11:58:31;;;;;;;3.43;3.33;;;;;;;;;;5048894;28;20422;-69
2023/08/24 12:00:57;;;;;;;3.73;3.43;;;;;;;;;;5042569;28;20434;-69
2023/08/24 12:03:23;;;;;;;4.60;4.30;;;;;;;;;;5046321;28;20470;-69
2023/08/24 12:05:50;;;;;;;3.87;3.67;;;;;;;;;;5045302;28;20886;-69
2023/08/24 12:08:16;;;;;;;4.37;3.97;;;;;;;;;;5043244;28;21014;-71
2023/08/24 12:10:43;;;;;;;6.83;4.80;;;;;;;;;;5046085;28;20919;-69
2023/08/24 12:13:10;;;;;;;6.13;4.17;;;;;;;;;;5049957;28;20525;-71
2023/08/24 12:15:36;;;;;;;4.03;3.83;;;;;;;;;;5050055;28;20946;-69
2023/08/24 12:18:08;;;;;;;6.53;4.70;;;;;;;;;;5048133;28;20577;-69
2023/08/24 12:20:35;;;;;;;7.13;3.80;;;;;;;;;;5049797;28;20923;-69
2023/08/24 12:23:01;;;;;;;7.00;4.43;;;;;;;;;;5049575;28;20449;-68
2023/08/24 12:25:27;;;;;;;4.00;3.70;;;;;;;;;;5052220;28;20914;-69
2023/08/24 12:27:53;;;;;;;6.20;4.40;;;;;;;;;;5050128;28;20434;-68
2023/08/24 12:30:20;;;;;;;4.13;3.80;;;;;;;;;;5051438;28;20465;-68
2023/08/24 12:32:47;;;;;;;4.83;3.90;;;;;;;;;;5044164;28;20441;-69
2023/08/24 12:35:15;;;;;;;4.23;3.93;;;;;;;;;;5051817;28;20437;-69
2023/08/24 12:37:41;;;;;;;3.83;3.37;;;;;;;;;;5049635;28;20481;-69
2023/08/24 12:40:08;;;;;;;4.60;4.03;;;;;;;;;;5049170;28;21230;-69
2023/08/24 12:42:34;;;;;;;5.13;3.90;;;;;;;;;;5051957;28;20914;-70
2023/08/24 12:45:00;;;;;;;3.93;3.63;;;;;;;;;;5050747;28;20426;-69
2023/08/24 12:47:26;;;;;;;8.93;4.03;;;;;;;;;;5051575;28;20430;-69
2023/08/24 12:49:55;;;;;;;13.30;4.13;;;;;;;;;;5051282;28;20462;-69
2023/08/24 12:52:23;;;;;;;4.33;4.13;;;;;;;;;;5050496;28;20540;-70
2023/08/24 12:54:49;;;;;;;6.00;3.50;;;;;;;;;;5051440;28;20941;-69
2023/08/24 12:57:15;;;;;;;6.40;3.70;;;;;;;;;;5048149;28;20481;-69
2023/08/24 12:59:41;;;;;;;5.70;3.60;;;;;;;;;;5050286;28;20831;-70
2023/08/24 13:02:07;;;;;;;6.40;3.33;;;;;;;;;;5048468;28;20195;-70
2023/08/24 13:04:33;;;;;;;11.10;3.80;;;;;;;;;;5048683;28;20435;-69
2023/08/24 13:06:59;;;;;;;4.47;4.27;;;;;;;;;;5047454;28;20950;-69
2023/08/24 13:09:25;;;;;;;4.00;3.70;;;;;;;;;;5049003;28;20862;-69
2023/08/24 13:11:51;;;;;;;5.07;4.77;;;;;;;;;;5047876;28;20449;-69
2023/08/24 13:14:17;;;;;;;5.00;4.47;;;;;;;;;;5047333;28;20806;-68
2023/08/24 13:16:44;;;;;;;3.70;3.50;;;;;;;;;;5048899;28;20489;-70
2023/08/24 13:19:09;;;;;;;8.33;3.60;;;;;;;;;;5050733;28;20449;-70
2023/08/24 13:21:35;;;;;;;14.83;3.63;;;;;;;;;;5051734;28;20423;-69
2023/08/24 13:24:02;;;;;;;4.27;3.87;;;;;;;;;;5049080;28;20509;-70
2023/08/24 13:26:28;;;;;;;4.07;3.83;;;;;;;;;;5050502;28;20438;-69
2023/08/24 13:28:54;;;;;;;4.07;3.87;;;;;;;;;;5050423;28;20487;-69
2023/08/24 13:31:20;;;;;;;4.33;3.97;;;;;;;;;;5049783;28;20952;-70
2023/08/24 13:33:46;;;;;;;5.50;5.00;;;;;;;;;;5051454;28;20426;-69
2023/08/24 13:36:12;;;;;;;6.83;5.00;;;;;;;;;;5049053;28;20521;-70
2023/08/24 13:38:38;;;;;;;11.90;3.30;;;;;;;;;;5051339;28;20434;-69
2023/08/24 13:41:04;;;;;;;8.47;4.80;;;;;;;;;;5051800;28;20425;-69
2023/08/24 13:43:30;;;;;;;4.07;3.70;;;;;;;;;;5048534;28;20788;-69
2023/08/24 13:45:56;;;;;;;6.53;4.07;;;;;;;;;;5048272;28;20438;-69
2023/08/24 13:48:24;;;;;;;4.63;4.20;;;;;;;;;;5049033;28;21241;-69
2023/08/24 13:50:52;;;;;;;5.33;4.40;;;;;;;;;;5048902;28;20198;-70
2023/08/24 13:53:17;;;;;;;3.83;3.00;;;;;;;;;;5050183;28;20570;-69
2023/08/24 13:55:43;;;;;;;4.63;2.93;;;;;;;;;;5051116;28;20517;-70
2023/08/24 13:58:10;;;;;;;3.80;3.47;;;;;;;;;;5048904;28;21340;-68
2023/08/24 14:00:36;;;;;;;2.93;2.83;;;;;;;;;;5047358;28;20647;-70
2023/08/24 14:03:02;;;;;;;13.87;3.07;;;;;;;;;;5050673;28;20458;-69
2023/08/24 14:05:28;;;;;;;3.83;2.67;;;;;;;;;;5048937;28;20847;-69
2023/08/24 14:07:54;;;;;;;3.23;2.87;;;;;;;;;;5050956;28;21025;-70
2023/08/24 14:10:20;;;;;;;5.97;3.23;;;;;;;;;;5049031;28;20427;-69
2023/08/24 14:12:47;;;;;;;6.37;3.77;;;;;;;;;;5051359;28;20791;-69
2023/08/24 14:15:13;;;;;;;4.10;3.70;;;;;;;;;;5050523;28;20484;-69
2023/08/24 14:17:39;;;;;;;4.60;3.67;;;;;;;;;;5049470;28;20486;-70
2023/08/24 14:20:06;;;;;;;7.23;3.90;;;;;;;;;;5048736;28;20426;-69
2023/08/24 14:22:32;;;;;;;16.57;3.77;;;;;;;;;;5051018;28;20419;-69
2023/08/24 14:24:58;;;;;;;3.40;3.27;;;;;;;;;;5048399;28;20442;-69
2023/08/24 14:27:24;;;;;;;9.33;4.30;;;;;;;;;;5048630;28;20432;-70
2023/08/24 14:29:50;;;;;;;10.73;3.83;;;;;;;;;;5046451;28;20276;-69
2023/08/24 14:32:16;;;;;;;3.23;3.03;;;;;;;;;;5049337;28;20984;-69
2023/08/24 14:34:43;;;;;;;3.30;3.07;;;;;;;;;;5049765;28;20462;-70
2023/08/24 14:37:09;;;;;;;27.67;3.57;;;;;;;;;;5049158;28;20486;-69
2023/08/24 14:39:35;;;;;;;5.43;3.43;;;;;;;;;;5046617;28;20427;-70